Latest Weather Observations for Cummins Airport

IDS60801

Issued at 5:11 pm CST Tuesday 20 April 2021 (issued every 10 minutes, with the page automatically refreshed every 10 minutes)

About weather observations | Map of weather stations | Latest weather observations for SA | Other Formats
Station Details ID: 018217 Name: CUMMINS AERO Lat: -34.25 Lon: 135.71 Height: 60.11 m
Data from the previous 72 hours. | See also: Recent months at Cummins Airport
Date/Time
CST
Temp
°C
App
Temp
°C
Dew
Point
°C
Rel
Hum
%
Delta-T
°C
Wind Press
QNH
hPa
Press
MSL
hPa
Rain since
9am
mm
Dir  Spd
km/h
Gust
km/h
Spd
kts
Gust
kts
20/05:00pm 17.5 13.4 6.1 47 5.6 SSW 17 20 9 11 1018.3 1018.2 0.0
20/04:30pm 17.5 13.4 6.4 48 5.5 SSW 17 22 9 12 1018.2 1018.1 0.0
20/04:00pm 17.9 14.8 7.3 50 5.3 SSW 13 19 7 10 1018.0 1017.9 0.0
20/03:30pm 18.2 14.9 7.9 51 5.3 SSW 15 22 8 12 1018.0 1017.9 0.0
20/03:00pm 17.9 13.8 8.5 54 4.8 SSE 20 30 11 16 1017.9 1017.8 0.0
20/02:30pm 18.5 14.7 9.8 57 4.6 S 20 32 11 17 1017.9 1017.8 0.0
20/02:00pm 17.3 12.7 9.7 61 4.0 S 24 32 13 17 1018.0 1017.9 0.0
20/01:30pm 17.5 13.0 10.1 62 3.9 S 24 33 13 18 1018.1 1018.0 0.0
20/01:00pm 16.6 11.6 11.1 70 3.0 S 28 35 15 19 1018.2 1018.1 0.0
20/12:30pm 17.1 12.5 10.9 67 3.3 S 26 39 14 21 1018.1 1018.0 0.0
20/12:00pm 16.9 12.9 13.0 78 2.2 SSE 26 35 14 19 1018.3 1018.2 0.0
20/11:30am 16.7 12.6 13.8 83 1.6 S 28 39 15 21 1018.0 1017.9 0.0
20/11:00am 14.8 10.8 14.0 95 0.5 S 28 44 15 24 1018.0 1017.9 0.0
20/10:30am 15.9 13.3 15.9 100 0.0 S 24 32 13 17 1017.8 1017.7 0.0
20/10:00am 15.8 13.5 15.8 100 0.0 S 22 32 12 17 1017.6 1017.5 0.0
20/09:30am 16.2 14.7 16.2 100 0.0 S 19 24 10 13 1017.3 1017.2 0.0
20/09:00am 15.5 14.1 15.5 100 0.0 SSW 17 24 9 13 1017.2 1017.1 2.4
20/08:30am 14.1 12.9 14.1 100 0.0 W 13 17 7 9 1016.6 1016.5 2.2
20/08:00am 13.1 12.4 13.1 100 0.0 NNW 9 13 5 7 1016.0 1015.9 2.0
20/07:30am 12.7 11.1 12.7 100 0.0 NNW 13 17 7 9 1015.5 1015.4 1.2
20/07:00am 12.9 10.2 12.9 100 0.0 NW 19 24 10 13 1015.1 1015.0 1.2
20/06:30am 11.3 9.6 11.3 100 0.0 N 11 13 6 7 1014.9 1014.8 0.4
20/06:00am 10.2 9.0 10.2 100 0.0 N 7 11 4 6 1014.9 1014.8 0.0
20/05:30am 9.2 6.6 9.2 100 0.0 NNE 13 15 7 8 1014.7 1014.6 0.0
20/05:00am 7.9 4.6 7.9 100 0.0 NNE 15 17 8 9 1014.7 1014.6 0.0
20/04:30am 7.8 4.8 7.8 100 0.0 NNE 13 15 7 8 1014.7 1014.6 0.0
20/04:00am 8.4 6.3 8.4 100 0.0 ENE 9 11 5 6 1014.6 1014.5 0.0
20/03:30am 7.5 5.6 7.5 100 0.0 NNE 7 15 4 8 1014.2 1014.1 0.0
20/03:00am 8.4 6.7 8.4 100 0.0 N 7 11 4 6 1014.4 1014.3 0.0
20/02:30am 9.0 7.1 8.9 99 0.0 N 9 11 5 6 1014.4 1014.3 0.0
20/02:00am 12.7 11.5 12.7 100 0.0 NW 11 15 6 8 1014.6 1014.5 0.0
20/01:30am 13.7 12.5 12.9 95 0.4 NW 11 15 6 8 1014.7 1014.6 0.0
20/01:00am 14.2 12.7 13.1 93 0.6 NW 13 17 7 9 1015.0 1014.9 0.0
20/12:30am 13.7 12.8 12.6 93 0.6 WNW 9 17 5 9 1015.2 1015.1 0.0
20/12:00am 13.1 11.0 11.2 88 1.0 NW 13 17 7 9 1015.2 1015.1 0.0
 
Date/Time
CST
Temp
°C
App
Temp
°C
Dew
Point
°C
Rel
Hum
%
Delta-T
°C
Wind Press
QNH
hPa
Press
MSL
hPa
Rain since
9am
mm
Dir  Spd
km/h
Gust
km/h
Spd
kts
Gust
kts
19/11:30pm 12.7 10.4 10.4 86 1.2 NW 13 19 7 10 1015.2 1015.1 0.0
19/11:00pm 10.3 8.7 8.1 86 1.1 N 6 7 3 4 1015.5 1015.4 0.0
19/10:30pm 9.3 6.8 6.6 83 1.3 NNE 9 11 5 6 1015.7 1015.6 0.0
19/10:00pm 9.9 7.0 6.4 79 1.6 NE 11 11 6 6 1015.9 1015.8 0.0
19/09:30pm 10.3 8.6 5.7 73 2.1 NNE 4 9 2 5 1016.1 1016.0 0.0
19/09:00pm 9.2 8.1 5.2 76 1.8 CALM 0 2 0 1 1016.1 1016.0 0.0
19/08:30pm 8.5 6.0 4.5 76 1.8 NE 7 9 4 5 1015.9 1015.8 0.0
19/08:00pm 9.4 8.3 5.0 74 2.0 CALM 0 0 0 0 1016.1 1016.0 0.0
19/07:30pm 10.5 8.2 4.6 67 2.7 NW 6 7 3 4 1016.1 1016.0 0.0
19/07:00pm 13.8 11.8 7.3 65 3.2 WNW 7 7 4 4 1016.0 1015.9 0.0
19/06:30pm 14.6 11.8 6.9 60 3.8 W 11 13 6 7 1015.8 1015.7 0.0
19/06:00pm 16.4 12.5 7.3 55 4.5 W 17 20 9 11 1015.7 1015.6 0.0
19/05:30pm 18.1 13.8 7.8 51 5.2 W 20 26 11 14 1015.4 1015.3 0.0
19/05:00pm 19.1 14.1 6.6 44 6.3 WNW 22 30 12 16 1015.3 1015.2 0.0
19/04:30pm 19.6 14.3 7.0 44 6.4 WNW 24 32 13 17 1015.5 1015.4 0.0
19/04:00pm 19.6 13.5 6.4 42 6.6 W 28 35 15 19 1015.6 1015.5 0.0
19/03:30pm 20.2 13.9 5.8 39 7.2 WNW 28 39 15 21 1015.7 1015.6 0.0
19/03:00pm 20.5 14.3 6.1 39 7.2 WNW 28 44 15 24 1015.7 1015.6 0.0
19/02:30pm 21.0 14.5 6.5 39 7.3 WNW 30 41 16 22 1015.8 1015.7 0.0
19/02:00pm 20.8 14.7 6.7 40 7.2 WNW 28 39 15 21 1016.0 1015.9 0.0
19/01:30pm 20.6 15.2 6.2 39 7.2 WNW 24 35 13 19 1016.4 1016.3 0.0
19/01:00pm 20.2 14.4 6.2 40 7.0 WNW 26 35 14 19 1016.9 1016.8 0.0
19/12:30pm 19.1 12.4 5.6 41 6.6 NW 30 41 16 22 1017.7 1017.6 0.0
19/12:00pm 20.1 14.4 6.5 41 6.8 NW 26 35 14 19 1018.2 1018.1 0.0
19/11:30am 18.8 13.8 6.6 45 6.1 NW 22 35 12 19 1018.6 1018.5 0.0
19/11:00am 19.7 14.5 7.1 44 6.4 NW 24 35 13 19 1018.9 1018.8 0.0
19/10:30am 18.7 13.9 7.5 48 5.7 NNW 22 32 12 17 1019.2 1019.1 0.0
19/10:00am 18.2 13.0 8.7 54 4.9 NNW 26 33 14 18 1019.5 1019.4 0.0
19/09:30am 16.5 12.7 9.7 64 3.6 NNW 20 26 11 14 1019.9 1019.8 0.0
19/09:00am 15.0 12.4 10.6 75 2.3 NNW 15 20 8 11 1020.3 1020.2 0.0
19/08:30am 12.4 10.5 10.5 88 1.0 N 11 17 6 9 1020.4 1020.3 0.0
19/08:00am 10.4 8.5 10.4 100 0.0 NNE 11 15 6 8 1020.1 1020.0 0.0
19/07:30am 8.8 6.8 8.8 100 0.0 NNE 9 11 5 6 1019.9 1019.8 0.0
19/07:00am 8.4 6.3 8.4 100 0.0 NNE 9 11 5 6 1019.8 1019.7 0.0
19/06:30am 8.7 6.3 8.7 100 0.0 NNE 11 15 6 8 1019.7 1019.6 0.0
19/06:00am 7.3 4.6 7.3 100 0.0 NNE 11 13 6 7 1019.6 1019.5 0.0
19/05:30am 6.1 2.7 6.1 100 0.0 NE 13 15 7 8 1019.8 1019.7 0.0
19/05:00am 6.2 3.6 6.2 100 0.0 NNE 9 13 5 7 1020.1 1020.0 0.0
19/04:30am 7.2 6.1 7.1 99 0.0 SSW 2 7 1 4 1020.0 1019.9 0.0
19/04:00am 8.8 8.5 8.8 100 0.0 CALM 0 0 0 0 1020.1 1020.0 0.0
19/03:30am 10.2 8.6 10.2 100 0.0 NE 9 11 5 6 1020.1 1020.0 0.0
19/03:00am 10.9 9.6 10.0 94 0.5 NNE 7 9 4 5 1020.4 1020.3 0.0
19/02:30am 12.2 11.2 11.1 93 0.6 NNE 7 9 4 5 1020.8 1020.7 0.0
19/02:00am 12.7 12.0 11.9 95 0.4 NNE 7 7 4 4 1021.2 1021.1 0.0
19/01:30am 12.8 11.8 12.2 96 0.3 NNE 9 9 5 5 1021.4 1021.3 0.0
19/01:00am 12.7 11.7 12.2 97 0.3 NE 9 11 5 6 1021.6 1021.5 0.0
19/12:30am 12.6 11.5 11.8 95 0.4 NE 9 9 5 5 1021.8 1021.7 0.0
19/12:00am 12.8 11.7 11.9 94 0.5 NE 9 11 5 6 1022.2 1022.1 0.0
 
Date/Time
CST
Temp
°C
App
Temp
°C
Dew
Point
°C
Rel
Hum
%
Delta-T
°C
Wind Press
QNH
hPa
Press
MSL
hPa
Rain since
9am
mm
Dir  Spd
km/h
Gust
km/h
Spd
kts
Gust
kts
18/11:30pm 12.7 11.6 11.9 95 0.4 NE 9 11 5 6 1022.5 1022.4 0.0
18/11:00pm 11.9 11.0 10.6 92 0.7 NE 6 7 3 4 1022.9 1022.8 0.0
18/10:30pm 11.7 10.7 10.9 95 0.4 N 7 9 4 5 1023.2 1023.1 0.0
18/10:00pm 11.5 11.0 10.7 95 0.4 NE 4 9 2 5 1023.5 1023.4 0.0
18/09:30pm 11.2 9.5 9.8 91 0.7 NNE 9 11 5 6 1023.5 1023.4 0.0
18/09:00pm 11.3 9.9 9.7 90 0.8 NNE 7 9 4 5 1023.5 1023.4 0.0
18/08:30pm 11.2 9.9 9.1 87 1.0 N 6 9 3 5 1023.5 1023.4 0.0
18/08:00pm 13.5 12.0 10.7 83 1.5 WNW 9 11 5 6 1023.6 1023.5 0.0
18/07:30pm 14.6 13.1 10.6 77 2.1 WNW 9 13 5 7 1023.9 1023.8 0.0
18/07:00pm 15.7 13.9 10.9 73 2.6 W 11 13 6 7 1023.8 1023.7 0.0
18/06:30pm 16.6 13.7 10.9 69 3.0 W 17 20 9 11 1023.6 1023.5 0.0
18/06:00pm 17.2 13.5 10.1 63 3.7 W 20 24 11 13 1023.5 1023.4 0.0
18/05:30pm 17.9 14.8 8.7 55 4.7 WSW 15 19 8 10 1023.5 1023.4 0.0
18/05:00pm 18.2 13.9 9.3 56 4.7 W 22 26 12 14 1023.4 1023.3 0.0
18/04:30pm 19.9 16.3 8.3 47 6.0 W 17 24 9 13 1023.3 1023.2 0.0
18/04:00pm 19.3 15.0 8.0 48 5.8 WSW 20 28 11 15 1023.5 1023.4 0.0
18/03:30pm 19.5 14.5 6.6 43 6.5 WSW 22 30 12 16 1023.7 1023.6 0.0
18/03:00pm 19.4 13.2 6.2 42 6.5 WSW 28 35 15 19 1023.6 1023.5 0.0
18/02:30pm 19.6 15.1 7.0 44 6.4 SW 20 28 11 15 1023.7 1023.6 0.0
18/02:00pm 19.5 15.0 6.9 44 6.4 WSW 20 26 11 14 1024.1 1024.0 0.0
18/01:30pm 19.3 15.0 7.1 45 6.2 W 19 26 10 14 1024.4 1024.3 0.0
18/01:00pm 18.9 14.8 7.7 48 5.7 WSW 19 26 10 14 1024.8 1024.7 0.0
18/12:30pm 18.9 15.3 8.3 50 5.5 SSW 17 24 9 13 1025.3 1025.2 0.0
18/12:00pm 18.9 16.0 8.3 50 5.5 WSW 13 22 7 12 1025.7 1025.6 0.0
18/11:30am 18.7 16.3 8.7 52 5.2 SW 11 17 6 9 1026.2 1026.2 0.0
18/11:00am 17.9 15.1 8.7 55 4.8 WSW 13 24 7 13 1026.4 1026.4 0.0
18/10:30am 17.2 14.2 7.8 54 4.7 W 13 19 7 10 1026.8 1026.8 0.0
18/10:00am 17.0 15.5 10.4 65 3.5 WSW 9 15 5 8 1027.0 1027.0 0.0
18/09:30am 16.7 15.3 11.0 69 3.0 SW 9 13 5 7 1027.1 1027.1 0.0
18/09:00am 16.3 15.9 11.2 72 2.7 NNW 4 9 2 5 1027.2 1027.2 0.0
18/08:30am 15.7 14.5 11.7 77 2.2 N 9 11 5 6 1027.1 1027.1 0.0
18/08:00am 14.3 13.4 11.5 83 1.5 N 7 7 4 4 1027.1 1027.1 0.0
18/07:30am 13.5 12.7 11.6 88 1.0 NE 7 7 4 4 1026.7 1026.7 0.0
18/07:00am 13.2 12.7 10.7 85 1.3 NNW 4 6 2 3 1026.6 1026.6 0.0
18/06:30am 13.6 12.9 11.3 86 1.2 NNW 6 7 3 4 1026.6 1026.6 0.0
18/06:00am 13.5 12.1 10.9 84 1.4 NNW 9 11 5 6 1026.7 1026.7 0.0
18/05:30am 14.4 14.6 10.6 78 2.0 CALM 0 0 0 0 1026.6 1026.6 0.0
18/05:00am 14.0 13.1 11.2 83 1.5 S 7 11 4 6 1026.5 1026.5 0.0
18/04:30am 14.0 13.0 11.0 82 1.6 S 7 9 4 5 1026.5 1026.5 0.0
18/04:00am 13.7 13.5 11.8 88 1.0 SW 4 13 2 7 1026.6 1026.6 0.0
18/03:30am 13.2 13.4 10.4 83 1.4 CALM 0 0 0 0 1026.7 1026.7 0.0
18/03:00am 13.1 13.1 9.9 81 1.6 CALM 0 0 0 0 1027.0 1027.0 0.0
18/02:30am 12.9 12.9 9.7 81 1.6 CALM 0 0 0 0 1027.3 1027.3 0.0
18/02:00am 13.0 11.7 10.0 82 1.5 NE 7 7 4 4 1027.3 1027.3 0.0
18/01:30am 12.7 12.2 9.3 80 1.7 NE 2 9 1 5 1027.4 1027.4 0.0
18/01:00am 12.6 12.4 9.1 79 1.8 CALM 0 0 0 0 1027.8 1027.8 0.0
18/12:30am 12.2 11.9 8.5 78 1.8 CALM 0 0 0 0 1027.9 1027.9 0.0
18/12:00am 12.3 12.0 8.6 78 1.8 CALM 0 0 0 0 1028.2 1028.1 0.0
 
Date/Time
CST
Temp
°C
App
Temp
°C
Dew
Point
°C
Rel
Hum
%
Delta-T
°C
Wind Press
QNH
hPa
Press
MSL
hPa
Rain since
9am
mm
Dir  Spd
km/h
Gust
km/h
Spd
kts
Gust
kts
17/11:30pm 12.4 11.0 8.9 79 1.7 ENE 6 9 3 5 1028.2 1028.1 0.0
17/11:00pm 12.1 11.4 8.4 78 1.8 N 2 7 1 4 1028.5 1028.4 0.0
17/10:30pm 12.2 11.9 8.5 78 1.8 CALM 0 0 0 0 1028.8 1028.7 0.0
17/10:00pm 12.1 11.9 8.9 81 1.6 CALM 0 0 0 0 1028.8 1028.7 0.0
17/09:30pm 12.3 12.1 9.1 81 1.6 CALM 0 0 0 0 1028.5 1028.4 0.0
17/09:00pm 13.0 11.5 9.3 78 1.9 SSE 7 9 4 5 1028.4 1028.3 0.0
17/08:30pm 13.3 11.9 9.5 78 1.9 SSW 7 9 4 5 1028.4 1028.3 0.0
17/08:00pm 12.9 11.1 9.5 80 1.7 SSW 9 11 5 6 1028.4 1028.3 0.0
17/07:30pm 13.8 11.3 9.8 77 2.1 SW 13 15 7 8 1028.5 1028.4 0.0
17/07:00pm 14.9 12.0 9.5 70 2.8 SW 15 19 8 10 1028.3 1028.2 0.0
17/06:30pm 15.7 13.2 9.6 67 3.2 WSW 13 19 7 10 1028.0 1028.0 0.0
17/06:00pm 16.4 13.4 9.3 63 3.7 WSW 15 19 8 10 1028.0 1028.0 0.0
17/05:30pm 17.2 13.2 8.9 58 4.3 WSW 20 28 11 15 1027.7 1027.7 0.0

Other formats

Comma delimited format used in spreadsheet applications
http://www.bom.gov.au/fwo/IDS60801/IDS60801.95663.axf

JavaScript Object Notation format (JSON) in row-major order
http://www.bom.gov.au/fwo/IDS60801/IDS60801.95663.json

Data quality

Most of these data are generated automatically and are frequently updated. Quality checks on data are not normally performed. It is possible for incorrect values to appear. Refer to information at About Latest Weather Observations and please check the disclaimer before using these data.